sensor_id;sensor_type;location;lat;lon;timestamp;P1;durP1;ratioP1;P2;durP2;ratioP2
77206;SDS011;66190;50.708;7.906;2023-04-15T00:00:13;7.93;;;1.90;;
77206;SDS011;66190;50.708;7.906;2023-04-15T00:02:40;8.43;;;1.98;;
77206;SDS011;66190;50.708;7.906;2023-04-15T00:05:06;7.73;;;1.70;;
77206;SDS011;66190;50.708;7.906;2023-04-15T00:07:32;5.95;;;1.67;;
77206;SDS011;66190;50.708;7.906;2023-04-15T00:09:58;7.65;;;2.13;;
77206;SDS011;66190;50.708;7.906;2023-04-15T00:12:24;5.75;;;1.77;;
77206;SDS011;66190;50.708;7.906;2023-04-15T00:14:50;8.15;;;2.13;;
77206;SDS011;66190;50.708;7.906;2023-04-15T00:17:15;5.47;;;1.50;;
77206;SDS011;66190;50.708;7.906;2023-04-15T00:19:41;7.25;;;2.17;;
77206;SDS011;66190;50.708;7.906;2023-04-15T00:22:08;6.93;;;2.13;;
77206;SDS011;66190;50.708;7.906;2023-04-15T00:24:34;6.27;;;1.93;;
77206;SDS011;66190;50.708;7.906;2023-04-15T00:26:59;8.17;;;2.07;;
77206;SDS011;66190;50.708;7.906;2023-04-15T00:29:25;6.90;;;1.90;;
77206;SDS011;66190;50.708;7.906;2023-04-15T00:31:50;5.47;;;1.83;;
77206;SDS011;66190;50.708;7.906;2023-04-15T00:34:15;6.35;;;1.92;;
77206;SDS011;66190;50.708;7.906;2023-04-15T00:36:41;5.77;;;2.10;;
77206;SDS011;66190;50.708;7.906;2023-04-15T00:39:07;8.30;;;2.10;;
77206;SDS011;66190;50.708;7.906;2023-04-15T00:41:32;6.25;;;1.73;;
77206;SDS011;66190;50.708;7.906;2023-04-15T00:43:58;6.10;;;2.00;;
77206;SDS011;66190;50.708;7.906;2023-04-15T00:46:24;5.75;;;1.80;;
77206;SDS011;66190;50.708;7.906;2023-04-15T00:48:53;8.15;;;2.25;;
77206;SDS011;66190;50.708;7.906;2023-04-15T00:51:19;7.47;;;2.00;;
77206;SDS011;66190;50.708;7.906;2023-04-15T00:53:44;5.60;;;1.77;;
77206;SDS011;66190;50.708;7.906;2023-04-15T00:56:09;7.90;;;2.03;;
77206;SDS011;66190;50.708;7.906;2023-04-15T00:58:35;7.00;;;1.87;;
77206;SDS011;66190;50.708;7.906;2023-04-15T01:01:01;6.65;;;2.10;;
77206;SDS011;66190;50.708;7.906;2023-04-15T01:03:28;7.35;;;2.15;;
77206;SDS011;66190;50.708;7.906;2023-04-15T01:05:54;5.83;;;2.00;;
77206;SDS011;66190;50.708;7.906;2023-04-15T01:08:26;7.68;;;2.10;;
77206;SDS011;66190;50.708;7.906;2023-04-15T01:10:53;6.88;;;2.20;;
77206;SDS011;66190;50.708;7.906;2023-04-15T01:13:21;6.77;;;2.27;;
77206;SDS011;66190;50.708;7.906;2023-04-15T01:15:48;7.97;;;2.47;;
77206;SDS011;66190;50.708;7.906;2023-04-15T01:18:13;7.53;;;2.03;;
77206;SDS011;66190;50.708;7.906;2023-04-15T01:20:39;10.07;;;2.27;;
77206;SDS011;66190;50.708;7.906;2023-04-15T01:23:05;7.20;;;1.98;;
77206;SDS011;66190;50.708;7.906;2023-04-15T01:25:31;8.07;;;2.00;;
77206;SDS011;66190;50.708;7.906;2023-04-15T01:27:58;5.10;;;1.70;;
77206;SDS011;66190;50.708;7.906;2023-04-15T01:30:24;8.10;;;2.08;;
77206;SDS011;66190;50.708;7.906;2023-04-15T01:32:50;6.93;;;1.80;;
77206;SDS011;66190;50.708;7.906;2023-04-15T01:35:16;6.43;;;2.10;;
77206;SDS011;66190;50.708;7.906;2023-04-15T01:37:42;7.00;;;2.00;;
77206;SDS011;66190;50.708;7.906;2023-04-15T01:40:07;5.93;;;2.33;;
77206;SDS011;66190;50.708;7.906;2023-04-15T01:42:34;7.68;;;2.35;;
77206;SDS011;66190;50.708;7.906;2023-04-15T01:45:00;8.10;;;2.40;;
77206;SDS011;66190;50.708;7.906;2023-04-15T01:47:26;6.15;;;2.20;;
77206;SDS011;66190;50.708;7.906;2023-04-15T01:49:52;7.28;;;2.28;;
77206;SDS011;66190;50.708;7.906;2023-04-15T01:52:17;8.20;;;2.17;;
77206;SDS011;66190;50.708;7.906;2023-04-15T01:54:43;6.27;;;2.10;;
77206;SDS011;66190;50.708;7.906;2023-04-15T01:57:08;7.70;;;2.47;;
77206;SDS011;66190;50.708;7.906;2023-04-15T01:59:34;6.47;;;1.98;;
77206;SDS011;66190;50.708;7.906;2023-04-15T02:02:00;6.13;;;1.80;;
77206;SDS011;66190;50.708;7.906;2023-04-15T02:04:25;7.10;;;2.20;;
77206;SDS011;66190;50.708;7.906;2023-04-15T02:06:52;7.13;;;1.97;;
77206;SDS011;66190;50.708;7.906;2023-04-15T02:09:17;6.70;;;1.88;;
77206;SDS011;66190;50.708;7.906;2023-04-15T02:11:43;7.60;;;2.33;;
77206;SDS011;66190;50.708;7.906;2023-04-15T02:14:08;6.07;;;2.05;;
77206;SDS011;66190;50.708;7.906;2023-04-15T02:16:34;6.93;;;1.98;;
77206;SDS011;66190;50.708;7.906;2023-04-15T02:19:00;7.40;;;2.50;;
77206;SDS011;66190;50.708;7.906;2023-04-15T02:21:26;6.97;;;2.20;;
77206;SDS011;66190;50.708;7.906;2023-04-15T02:23:51;9.27;;;2.10;;
77206;SDS011;66190;50.708;7.906;2023-04-15T02:26:18;6.82;;;1.83;;
77206;SDS011;66190;50.708;7.906;2023-04-15T02:28:43;5.43;;;1.88;;
77206;SDS011;66190;50.708;7.906;2023-04-15T02:31:09;8.03;;;2.50;;
77206;SDS011;66190;50.708;7.906;2023-04-15T02:33:34;7.57;;;2.43;;
77206;SDS011;66190;50.708;7.906;2023-04-15T02:36:01;7.57;;;2.38;;
77206;SDS011;66190;50.708;7.906;2023-04-15T02:38:26;6.67;;;2.07;;
77206;SDS011;66190;50.708;7.906;2023-04-15T02:40:51;6.67;;;2.00;;
77206;SDS011;66190;50.708;7.906;2023-04-15T02:43:17;6.80;;;2.08;;
77206;SDS011;66190;50.708;7.906;2023-04-15T02:45:42;6.23;;;1.90;;
77206;SDS011;66190;50.708;7.906;2023-04-15T02:48:08;6.60;;;2.17;;
77206;SDS011;66190;50.708;7.906;2023-04-15T02:50:34;7.27;;;2.20;;
77206;SDS011;66190;50.708;7.906;2023-04-15T02:53:01;7.65;;;1.90;;
77206;SDS011;66190;50.708;7.906;2023-04-15T02:55:27;9.03;;;1.80;;
77206;SDS011;66190;50.708;7.906;2023-04-15T02:57:53;8.93;;;2.15;;
77206;SDS011;66190;50.708;7.906;2023-04-15T03:00:18;7.83;;;1.90;;
77206;SDS011;66190;50.708;7.906;2023-04-15T03:02:45;7.28;;;2.50;;
77206;SDS011;66190;50.708;7.906;2023-04-15T03:05:11;7.25;;;2.03;;
77206;SDS011;66190;50.708;7.906;2023-04-15T03:07:37;6.53;;;2.20;;
77206;SDS011;66190;50.708;7.906;2023-04-15T03:10:04;7.72;;;2.80;;
77206;SDS011;66190;50.708;7.906;2023-04-15T03:12:30;7.30;;;2.80;;
77206;SDS011;66190;50.708;7.906;2023-04-15T03:14:55;8.87;;;2.80;;
77206;SDS011;66190;50.708;7.906;2023-04-15T03:17:21;8.50;;;2.77;;
77206;SDS011;66190;50.708;7.906;2023-04-15T03:19:46;8.20;;;3.03;;
77206;SDS011;66190;50.708;7.906;2023-04-15T03:22:11;7.78;;;2.65;;
77206;SDS011;66190;50.708;7.906;2023-04-15T03:24:37;8.53;;;2.67;;
77206;SDS011;66190;50.708;7.906;2023-04-15T03:27:02;7.07;;;2.70;;
77206;SDS011;66190;50.708;7.906;2023-04-15T03:29:27;6.97;;;2.03;;
77206;SDS011;66190;50.708;7.906;2023-04-15T03:31:53;8.83;;;2.30;;
77206;SDS011;66190;50.708;7.906;2023-04-15T03:34:18;6.57;;;1.83;;
77206;SDS011;66190;50.708;7.906;2023-04-15T03:36:44;7.57;;;2.30;;
77206;SDS011;66190;50.708;7.906;2023-04-15T03:39:10;6.45;;;2.30;;
77206;SDS011;66190;50.708;7.906;2023-04-15T03:41:36;7.50;;;2.43;;
77206;SDS011;66190;50.708;7.906;2023-04-15T03:44:01;7.70;;;2.63;;
77206;SDS011;66190;50.708;7.906;2023-04-15T03:46:27;8.57;;;2.30;;
77206;SDS011;66190;50.708;7.906;2023-04-15T03:48:52;8.93;;;2.38;;
77206;SDS011;66190;50.708;7.906;2023-04-15T03:51:17;11.63;;;3.07;;
77206;SDS011;66190;50.708;7.906;2023-04-15T03:53:43;9.80;;;3.40;;
77206;SDS011;66190;50.708;7.906;2023-04-15T03:56:08;15.80;;;3.70;;
77206;SDS011;66190;50.708;7.906;2023-04-15T03:58:33;8.87;;;3.70;;
77206;SDS011;66190;50.708;7.906;2023-04-15T04:00:59;10.23;;;4.25;;
77206;SDS011;66190;50.708;7.906;2023-04-15T04:03:25;8.67;;;3.47;;
77206;SDS011;66190;50.708;7.906;2023-04-15T04:05:52;12.80;;;3.83;;
77206;SDS011;66190;50.708;7.906;2023-04-15T04:08:17;8.70;;;3.47;;
77206;SDS011;66190;50.708;7.906;2023-04-15T04:10:44;7.32;;;2.92;;
77206;SDS011;66190;50.708;7.906;2023-04-15T04:13:10;8.93;;;3.77;;
77206;SDS011;66190;50.708;7.906;2023-04-15T04:15:35;9.23;;;3.53;;
77206;SDS011;66190;50.708;7.906;2023-04-15T04:18:00;12.10;;;4.30;;
77206;SDS011;66190;50.708;7.906;2023-04-15T04:20:26;9.93;;;3.92;;
77206;SDS011;66190;50.708;7.906;2023-04-15T04:22:51;10.60;;;5.40;;
77206;SDS011;66190;50.708;7.906;2023-04-15T04:25:17;10.40;;;4.70;;
77206;SDS011;66190;50.708;7.906;2023-04-15T04:27:42;10.30;;;3.87;;
77206;SDS011;66190;50.708;7.906;2023-04-15T04:30:09;8.77;;;3.38;;
77206;SDS011;66190;50.708;7.906;2023-04-15T04:32:35;7.82;;;2.80;;
77206;SDS011;66190;50.708;7.906;2023-04-15T04:35:00;9.83;;;3.30;;
77206;SDS011;66190;50.708;7.906;2023-04-15T04:37:26;9.40;;;2.80;;
77206;SDS011;66190;50.708;7.906;2023-04-15T04:39:51;8.27;;;2.80;;
77206;SDS011;66190;50.708;7.906;2023-04-15T04:42:17;7.80;;;2.47;;
77206;SDS011;66190;50.708;7.906;2023-04-15T04:44:42;9.70;;;2.90;;
77206;SDS011;66190;50.708;7.906;2023-04-15T04:47:07;10.63;;;2.93;;
77206;SDS011;66190;50.708;7.906;2023-04-15T04:49:33;8.60;;;2.97;;
77206;SDS011;66190;50.708;7.906;2023-04-15T04:51:58;9.87;;;2.93;;
77206;SDS011;66190;50.708;7.906;2023-04-15T04:54:24;9.70;;;3.30;;
77206;SDS011;66190;50.708;7.906;2023-04-15T04:56:50;8.60;;;2.70;;
77206;SDS011;66190;50.708;7.906;2023-04-15T04:59:15;8.00;;;2.30;;
77206;SDS011;66190;50.708;7.906;2023-04-15T05:01:41;8.13;;;2.70;;
77206;SDS011;66190;50.708;7.906;2023-04-15T05:04:06;9.57;;;3.50;;
77206;SDS011;66190;50.708;7.906;2023-04-15T05:06:32;7.47;;;2.90;;
77206;SDS011;66190;50.708;7.906;2023-04-15T05:08:57;8.15;;;3.42;;
77206;SDS011;66190;50.708;7.906;2023-04-15T05:11:23;10.07;;;3.40;;
77206;SDS011;66190;50.708;7.906;2023-04-15T05:13:48;9.15;;;3.35;;
77206;SDS011;66190;50.708;7.906;2023-04-15T05:16:14;8.77;;;3.03;;
77206;SDS011;66190;50.708;7.906;2023-04-15T05:18:39;9.77;;;3.30;;
77206;SDS011;66190;50.708;7.906;2023-04-15T05:21:04;8.90;;;3.10;;
77206;SDS011;66190;50.708;7.906;2023-04-15T05:23:30;9.33;;;3.87;;
77206;SDS011;66190;50.708;7.906;2023-04-15T05:25:56;8.75;;;3.15;;
77206;SDS011;66190;50.708;7.906;2023-04-15T05:28:21;8.57;;;3.73;;
77206;SDS011;66190;50.708;7.906;2023-04-15T05:30:47;10.63;;;3.40;;
77206;SDS011;66190;50.708;7.906;2023-04-15T05:33:12;11.93;;;3.33;;
77206;SDS011;66190;50.708;7.906;2023-04-15T05:35:37;9.60;;;3.20;;
77206;SDS011;66190;50.708;7.906;2023-04-15T05:38:03;12.30;;;3.47;;
77206;SDS011;66190;50.708;7.906;2023-04-15T05:40:29;8.53;;;2.90;;
77206;SDS011;66190;50.708;7.906;2023-04-15T05:42:54;10.07;;;3.30;;
77206;SDS011;66190;50.708;7.906;2023-04-15T05:45:20;10.20;;;3.50;;
77206;SDS011;66190;50.708;7.906;2023-04-15T05:47:46;11.90;;;3.70;;
77206;SDS011;66190;50.708;7.906;2023-04-15T05:50:11;10.33;;;3.50;;
77206;SDS011;66190;50.708;7.906;2023-04-15T05:52:37;8.40;;;3.17;;
77206;SDS011;66190;50.708;7.906;2023-04-15T05:55:02;12.13;;;3.60;;
77206;SDS011;66190;50.708;7.906;2023-04-15T05:57:27;10.97;;;3.97;;
77206;SDS011;66190;50.708;7.906;2023-04-15T05:59:53;9.40;;;3.60;;
77206;SDS011;66190;50.708;7.906;2023-04-15T06:02:19;9.27;;;3.50;;
77206;SDS011;66190;50.708;7.906;2023-04-15T06:04:45;10.90;;;3.83;;
77206;SDS011;66190;50.708;7.906;2023-04-15T06:07:10;9.68;;;3.45;;
77206;SDS011;66190;50.708;7.906;2023-04-15T06:09:36;8.70;;;2.97;;
77206;SDS011;66190;50.708;7.906;2023-04-15T06:12:01;9.60;;;3.80;;
77206;SDS011;66190;50.708;7.906;2023-04-15T06:14:27;10.73;;;4.20;;
77206;SDS011;66190;50.708;7.906;2023-04-15T06:16:52;9.45;;;4.05;;
77206;SDS011;66190;50.708;7.906;2023-04-15T06:19:18;9.63;;;4.05;;
77206;SDS011;66190;50.708;7.906;2023-04-15T06:21:44;10.77;;;4.50;;
77206;SDS011;66190;50.708;7.906;2023-04-15T06:24:10;11.27;;;4.30;;
77206;SDS011;66190;50.708;7.906;2023-04-15T06:26:36;12.65;;;5.13;;
77206;SDS011;66190;50.708;7.906;2023-04-15T06:29:01;11.87;;;5.33;;
77206;SDS011;66190;50.708;7.906;2023-04-15T06:31:27;13.73;;;5.40;;
77206;SDS011;66190;50.708;7.906;2023-04-15T06:33:52;10.68;;;5.10;;
77206;SDS011;66190;50.708;7.906;2023-04-15T06:36:17;11.67;;;5.30;;
77206;SDS011;66190;50.708;7.906;2023-04-15T06:38:43;12.30;;;4.90;;
77206;SDS011;66190;50.708;7.906;2023-04-15T06:41:08;12.20;;;5.07;;
77206;SDS011;66190;50.708;7.906;2023-04-15T06:43:34;12.02;;;4.72;;
77206;SDS011;66190;50.708;7.906;2023-04-15T06:46:00;11.13;;;4.80;;
77206;SDS011;66190;50.708;7.906;2023-04-15T06:48:26;12.25;;;5.35;;
77206;SDS011;66190;50.708;7.906;2023-04-15T06:50:51;11.70;;;4.93;;
77206;SDS011;66190;50.708;7.906;2023-04-15T06:53:17;10.53;;;4.10;;
77206;SDS011;66190;50.708;7.906;2023-04-15T06:55:42;11.35;;;4.57;;
77206;SDS011;66190;50.708;7.906;2023-04-15T06:58:08;10.33;;;4.37;;
77206;SDS011;66190;50.708;7.906;2023-04-15T07:00:33;9.17;;;4.03;;
77206;SDS011;66190;50.708;7.906;2023-04-15T07:02:59;9.67;;;4.40;;
77206;SDS011;66190;50.708;7.906;2023-04-15T07:05:28;12.15;;;4.50;;
77206;SDS011;66190;50.708;7.906;2023-04-15T07:07:54;11.23;;;4.60;;
77206;SDS011;66190;50.708;7.906;2023-04-15T07:10:19;10.77;;;4.77;;
77206;SDS011;66190;50.708;7.906;2023-04-15T07:12:45;11.77;;;4.10;;
77206;SDS011;66190;50.708;7.906;2023-04-15T07:15:11;10.88;;;4.80;;
77206;SDS011;66190;50.708;7.906;2023-04-15T07:17:37;10.80;;;4.27;;
77206;SDS011;66190;50.708;7.906;2023-04-15T07:20:02;9.50;;;4.07;;
77206;SDS011;66190;50.708;7.906;2023-04-15T07:22:29;9.98;;;3.88;;
77206;SDS011;66190;50.708;7.906;2023-04-15T07:24:54;10.63;;;4.68;;
77206;SDS011;66190;50.708;7.906;2023-04-15T07:27:19;11.45;;;4.13;;
77206;SDS011;66190;50.708;7.906;2023-04-15T07:29:45;10.27;;;4.03;;
77206;SDS011;66190;50.708;7.906;2023-04-15T07:32:10;11.20;;;4.17;;
77206;SDS011;66190;50.708;7.906;2023-04-15T07:34:36;10.97;;;3.93;;
77206;SDS011;66190;50.708;7.906;2023-04-15T07:37:02;7.72;;;3.30;;
77206;SDS011;66190;50.708;7.906;2023-04-15T07:39:27;8.85;;;3.30;;
77206;SDS011;66190;50.708;7.906;2023-04-15T07:41:53;11.18;;;3.85;;
77206;SDS011;66190;50.708;7.906;2023-04-15T07:44:20;8.80;;;3.50;;
77206;SDS011;66190;50.708;7.906;2023-04-15T07:46:46;8.43;;;3.60;;
77206;SDS011;66190;50.708;7.906;2023-04-15T07:49:12;10.02;;;3.67;;
77206;SDS011;66190;50.708;7.906;2023-04-15T07:51:37;9.87;;;3.50;;
77206;SDS011;66190;50.708;7.906;2023-04-15T07:54:02;9.15;;;3.40;;
77206;SDS011;66190;50.708;7.906;2023-04-15T07:56:28;8.87;;;3.10;;
77206;SDS011;66190;50.708;7.906;2023-04-15T07:58:53;8.90;;;3.50;;
77206;SDS011;66190;50.708;7.906;2023-04-15T08:01:19;9.37;;;2.83;;
77206;SDS011;66190;50.708;7.906;2023-04-15T08:03:45;8.32;;;2.78;;
77206;SDS011;66190;50.708;7.906;2023-04-15T08:06:10;8.07;;;2.90;;
77206;SDS011;66190;50.708;7.906;2023-04-15T08:08:36;7.00;;;2.42;;
77206;SDS011;66190;50.708;7.906;2023-04-15T08:11:01;6.87;;;2.13;;
77206;SDS011;66190;50.708;7.906;2023-04-15T08:13:27;6.27;;;2.17;;
77206;SDS011;66190;50.708;7.906;2023-04-15T08:18:48;6.55;;;2.42;;
77206;SDS011;66190;50.708;7.906;2023-04-15T08:21:15;7.18;;;2.47;;
77206;SDS011;66190;50.708;7.906;2023-04-15T08:23:40;6.27;;;2.37;;
77206;SDS011;66190;50.708;7.906;2023-04-15T08:26:07;6.68;;;2.22;;
77206;SDS011;66190;50.708;7.906;2023-04-15T08:28:33;6.10;;;1.95;;
77206;SDS011;66190;50.708;7.906;2023-04-15T08:30:59;7.93;;;2.40;;
77206;SDS011;66190;50.708;7.906;2023-04-15T08:33:25;6.33;;;1.93;;
77206;SDS011;66190;50.708;7.906;2023-04-15T08:35:50;5.50;;;1.97;;
77206;SDS011;66190;50.708;7.906;2023-04-15T08:38:16;5.83;;;1.40;;
77206;SDS011;66190;50.708;7.906;2023-04-15T08:40:43;5.47;;;1.77;;
77206;SDS011;66190;50.708;7.906;2023-04-15T08:43:22;5.65;;;1.45;;
77206;SDS011;66190;50.708;7.906;2023-04-15T08:45:52;5.93;;;1.48;;
77206;SDS011;66190;50.708;7.906;2023-04-15T08:48:19;6.45;;;1.50;;
77206;SDS011;66190;50.708;7.906;2023-04-15T08:50:46;5.65;;;1.45;;
77206;SDS011;66190;50.708;7.906;2023-04-15T08:53:12;5.20;;;1.63;;
77206;SDS011;66190;50.708;7.906;2023-04-15T08:55:45;5.25;;;1.30;;
77206;SDS011;66190;50.708;7.906;2023-04-15T08:58:16;5.32;;;1.50;;
77206;SDS011;66190;50.708;7.906;2023-04-15T09:00:43;7.25;;;1.60;;
77206;SDS011;66190;50.708;7.906;2023-04-15T09:03:09;5.28;;;1.20;;
77206;SDS011;66190;50.708;7.906;2023-04-15T09:05:35;4.55;;;1.38;;
77206;SDS011;66190;50.708;7.906;2023-04-15T09:08:02;5.10;;;1.30;;
77206;SDS011;66190;50.708;7.906;2023-04-15T09:10:28;4.88;;;1.33;;
77206;SDS011;66190;50.708;7.906;2023-04-15T09:12:55;5.53;;;1.40;;
77206;SDS011;66190;50.708;7.906;2023-04-15T09:15:21;4.60;;;1.17;;
77206;SDS011;66190;50.708;7.906;2023-04-15T09:17:49;4.55;;;0.98;;
77206;SDS011;66190;50.708;7.906;2023-04-15T09:20:15;6.10;;;1.30;;
77206;SDS011;66190;50.708;7.906;2023-04-15T09:22:43;5.15;;;1.40;;
77206;SDS011;66190;50.708;7.906;2023-04-15T09:27:52;4.68;;;1.10;;
77206;SDS011;66190;50.708;7.906;2023-04-15T09:30:19;4.73;;;1.20;;
77206;SDS011;66190;50.708;7.906;2023-04-15T09:33:03;4.53;;;1.10;;
77206;SDS011;66190;50.708;7.906;2023-04-15T09:35:32;5.00;;;1.50;;
77206;SDS011;66190;50.708;7.906;2023-04-15T09:38:04;5.18;;;1.20;;
77206;SDS011;66190;50.708;7.906;2023-04-15T09:43:16;5.07;;;1.17;;
77206;SDS011;66190;50.708;7.906;2023-04-15T09:45:49;4.45;;;1.20;;
77206;SDS011;66190;50.708;7.906;2023-04-15T09:48:19;4.45;;;1.17;;
77206;SDS011;66190;50.708;7.906;2023-04-15T09:50:49;4.18;;;1.00;;
77206;SDS011;66190;50.708;7.906;2023-04-15T09:53:16;4.70;;;1.35;;
77206;SDS011;66190;50.708;7.906;2023-04-15T09:58:33;5.70;;;1.25;;
77206;SDS011;66190;50.708;7.906;2023-04-15T10:01:01;4.18;;;1.15;;
77206;SDS011;66190;50.708;7.906;2023-04-15T10:03:29;4.53;;;1.30;;
77206;SDS011;66190;50.708;7.906;2023-04-15T10:05:57;4.38;;;1.13;;
77206;SDS011;66190;50.708;7.906;2023-04-15T10:08:26;6.83;;;2.20;;
77206;SDS011;66190;50.708;7.906;2023-04-15T10:10:53;5.82;;;1.50;;
77206;SDS011;66190;50.708;7.906;2023-04-15T10:13:19;4.85;;;1.40;;
77206;SDS011;66190;50.708;7.906;2023-04-15T10:18:24;5.65;;;1.75;;
77206;SDS011;66190;50.708;7.906;2023-04-15T10:20:51;6.10;;;1.90;;
77206;SDS011;66190;50.708;7.906;2023-04-15T10:23:18;5.78;;;1.90;;
77206;SDS011;66190;50.708;7.906;2023-04-15T10:25:45;6.10;;;1.58;;
77206;SDS011;66190;50.708;7.906;2023-04-15T10:28:10;6.57;;;2.20;;
77206;SDS011;66190;50.708;7.906;2023-04-15T10:30:36;5.80;;;1.40;;
77206;SDS011;66190;50.708;7.906;2023-04-15T10:33:02;5.43;;;1.70;;
77206;SDS011;66190;50.708;7.906;2023-04-15T10:35:30;5.45;;;1.70;;
77206;SDS011;66190;50.708;7.906;2023-04-15T10:37:56;5.38;;;1.70;;
77206;SDS011;66190;50.708;7.906;2023-04-15T10:42:51;6.13;;;2.40;;
77206;SDS011;66190;50.708;7.906;2023-04-15T10:45:17;5.43;;;1.70;;
77206;SDS011;66190;50.708;7.906;2023-04-15T10:47:43;5.70;;;2.30;;
77206;SDS011;66190;50.708;7.906;2023-04-15T10:50:08;5.55;;;2.30;;
77206;SDS011;66190;50.708;7.906;2023-04-15T10:52:34;6.67;;;2.33;;
77206;SDS011;66190;50.708;7.906;2023-04-15T10:55:14;6.68;;;2.17;;
77206;SDS011;66190;50.708;7.906;2023-04-15T10:57:43;5.70;;;1.90;;
77206;SDS011;66190;50.708;7.906;2023-04-15T11:00:10;6.65;;;1.85;;
77206;SDS011;66190;50.708;7.906;2023-04-15T11:08:03;7.13;;;1.77;;
77206;SDS011;66190;50.708;7.906;2023-04-15T11:12:58;5.75;;;1.98;;
77206;SDS011;66190;50.708;7.906;2023-04-15T11:15:32;5.97;;;2.00;;
77206;SDS011;66190;50.708;7.906;2023-04-15T11:20:35;6.20;;;2.05;;
77206;SDS011;66190;50.708;7.906;2023-04-15T11:23:03;6.32;;;2.30;;
77206;SDS011;66190;50.708;7.906;2023-04-15T11:25:30;5.55;;;2.13;;
77206;SDS011;66190;50.708;7.906;2023-04-15T11:27:57;6.22;;;2.30;;
77206;SDS011;66190;50.708;7.906;2023-04-15T11:30:25;8.85;;;2.35;;
77206;SDS011;66190;50.708;7.906;2023-04-15T11:32:53;5.65;;;2.05;;
77206;SDS011;66190;50.708;7.906;2023-04-15T11:35:21;5.45;;;1.95;;
77206;SDS011;66190;50.708;7.906;2023-04-15T11:37:47;6.43;;;2.38;;
77206;SDS011;66190;50.708;7.906;2023-04-15T11:40:14;5.55;;;1.83;;
77206;SDS011;66190;50.708;7.906;2023-04-15T11:42:42;5.45;;;2.00;;
77206;SDS011;66190;50.708;7.906;2023-04-15T11:45:12;6.27;;;2.17;;
77206;SDS011;66190;50.708;7.906;2023-04-15T11:47:40;7.00;;;2.50;;
77206;SDS011;66190;50.708;7.906;2023-04-15T11:50:13;5.70;;;2.13;;
77206;SDS011;66190;50.708;7.906;2023-04-15T11:52:40;6.22;;;2.33;;
77206;SDS011;66190;50.708;7.906;2023-04-15T11:55:16;7.72;;;2.85;;
77206;SDS011;66190;50.708;7.906;2023-04-15T11:57:41;5.43;;;1.83;;
77206;SDS011;66190;50.708;7.906;2023-04-15T12:00:07;5.50;;;2.10;;
77206;SDS011;66190;50.708;7.906;2023-04-15T12:02:35;7.13;;;2.67;;
77206;SDS011;66190;50.708;7.906;2023-04-15T12:05:04;6.65;;;2.60;;
77206;SDS011;66190;50.708;7.906;2023-04-15T12:07:30;6.20;;;2.28;;
77206;SDS011;66190;50.708;7.906;2023-04-15T12:09:57;5.75;;;2.35;;
77206;SDS011;66190;50.708;7.906;2023-04-15T12:12:26;7.10;;;2.75;;
77206;SDS011;66190;50.708;7.906;2023-04-15T12:14:52;6.28;;;2.58;;
77206;SDS011;66190;50.708;7.906;2023-04-15T12:17:20;6.57;;;2.60;;
77206;SDS011;66190;50.708;7.906;2023-04-15T12:19:47;7.97;;;2.97;;
77206;SDS011;66190;50.708;7.906;2023-04-15T12:22:14;6.55;;;2.40;;
77206;SDS011;66190;50.708;7.906;2023-04-15T12:24:41;6.38;;;2.22;;
77206;SDS011;66190;50.708;7.906;2023-04-15T12:27:11;7.13;;;2.72;;
77206;SDS011;66190;50.708;7.906;2023-04-15T12:29:38;7.18;;;3.10;;
77206;SDS011;66190;50.708;7.906;2023-04-15T12:32:12;7.72;;;3.00;;
77206;SDS011;66190;50.708;7.906;2023-04-15T12:37:05;7.93;;;2.70;;
77206;SDS011;66190;50.708;7.906;2023-04-15T12:39:40;7.05;;;3.05;;
77206;SDS011;66190;50.708;7.906;2023-04-15T12:42:07;7.38;;;3.47;;
77206;SDS011;66190;50.708;7.906;2023-04-15T12:44:33;6.70;;;2.80;;
77206;SDS011;66190;50.708;7.906;2023-04-15T12:47:00;7.10;;;2.77;;
77206;SDS011;66190;50.708;7.906;2023-04-15T12:49:26;6.75;;;3.03;;
77206;SDS011;66190;50.708;7.906;2023-04-15T12:51:52;7.33;;;2.90;;
77206;SDS011;66190;50.708;7.906;2023-04-15T12:54:19;6.90;;;2.67;;
77206;SDS011;66190;50.708;7.906;2023-04-15T12:56:46;6.40;;;2.47;;
77206;SDS011;66190;50.708;7.906;2023-04-15T12:59:12;7.28;;;2.80;;
77206;SDS011;66190;50.708;7.906;2023-04-15T13:01:39;7.68;;;3.33;;
77206;SDS011;66190;50.708;7.906;2023-04-15T13:04:05;6.85;;;2.80;;
77206;SDS011;66190;50.708;7.906;2023-04-15T13:06:31;7.65;;;3.28;;
77206;SDS011;66190;50.708;7.906;2023-04-15T13:09:00;6.80;;;2.63;;
77206;SDS011;66190;50.708;7.906;2023-04-15T13:11:26;7.30;;;2.77;;
77206;SDS011;66190;50.708;7.906;2023-04-15T13:13:53;7.05;;;2.85;;
77206;SDS011;66190;50.708;7.906;2023-04-15T13:16:18;6.60;;;2.30;;
77206;SDS011;66190;50.708;7.906;2023-04-15T13:18:44;6.83;;;2.60;;
77206;SDS011;66190;50.708;7.906;2023-04-15T13:21:11;6.47;;;2.60;;
77206;SDS011;66190;50.708;7.906;2023-04-15T13:23:37;7.30;;;2.58;;
77206;SDS011;66190;50.708;7.906;2023-04-15T13:26:02;7.30;;;2.53;;
77206;SDS011;66190;50.708;7.906;2023-04-15T13:28:28;6.45;;;2.50;;
77206;SDS011;66190;50.708;7.906;2023-04-15T13:30:53;6.90;;;3.00;;
77206;SDS011;66190;50.708;7.906;2023-04-15T13:33:19;7.07;;;2.67;;
77206;SDS011;66190;50.708;7.906;2023-04-15T13:35:44;7.10;;;2.50;;
77206;SDS011;66190;50.708;7.906;2023-04-15T13:38:09;7.40;;;2.80;;
77206;SDS011;66190;50.708;7.906;2023-04-15T13:40:35;7.18;;;2.60;;
77206;SDS011;66190;50.708;7.906;2023-04-15T13:43:00;7.07;;;2.50;;
77206;SDS011;66190;50.708;7.906;2023-04-15T13:45:26;6.87;;;2.50;;
77206;SDS011;66190;50.708;7.906;2023-04-15T13:47:51;7.47;;;2.93;;
77206;SDS011;66190;50.708;7.906;2023-04-15T13:50:17;8.77;;;3.85;;
77206;SDS011;66190;50.708;7.906;2023-04-15T13:52:43;9.77;;;4.50;;
77206;SDS011;66190;50.708;7.906;2023-04-15T13:55:08;13.40;;;6.20;;
77206;SDS011;66190;50.708;7.906;2023-04-15T13:57:34;9.52;;;4.35;;
77206;SDS011;66190;50.708;7.906;2023-04-15T14:00:00;10.13;;;4.47;;
77206;SDS011;66190;50.708;7.906;2023-04-15T14:02:26;11.07;;;5.18;;
77206;SDS011;66190;50.708;7.906;2023-04-15T14:04:51;13.90;;;6.30;;
77206;SDS011;66190;50.708;7.906;2023-04-15T14:07:17;11.63;;;5.27;;
77206;SDS011;66190;50.708;7.906;2023-04-15T14:09:42;10.80;;;4.77;;
77206;SDS011;66190;50.708;7.906;2023-04-15T14:12:08;10.75;;;5.03;;
77206;SDS011;66190;50.708;7.906;2023-04-15T14:14:35;11.57;;;4.60;;
77206;SDS011;66190;50.708;7.906;2023-04-15T14:17:01;10.00;;;4.50;;
77206;SDS011;66190;50.708;7.906;2023-04-15T14:19:28;9.43;;;4.22;;
77206;SDS011;66190;50.708;7.906;2023-04-15T14:21:55;9.80;;;4.20;;
77206;SDS011;66190;50.708;7.906;2023-04-15T14:24:20;9.80;;;4.40;;
77206;SDS011;66190;50.708;7.906;2023-04-15T14:26:45;12.57;;;4.83;;
77206;SDS011;66190;50.708;7.906;2023-04-15T14:29:11;9.53;;;3.80;;
77206;SDS011;66190;50.708;7.906;2023-04-15T14:31:36;9.63;;;3.93;;
77206;SDS011;66190;50.708;7.906;2023-04-15T14:34:02;10.07;;;4.45;;
77206;SDS011;66190;50.708;7.906;2023-04-15T14:36:28;9.50;;;4.10;;
77206;SDS011;66190;50.708;7.906;2023-04-15T14:38:53;10.47;;;3.97;;
77206;SDS011;66190;50.708;7.906;2023-04-15T14:41:18;8.50;;;3.80;;
77206;SDS011;66190;50.708;7.906;2023-04-15T14:43:44;9.10;;;3.55;;
77206;SDS011;66190;50.708;7.906;2023-04-15T14:46:09;9.10;;;3.75;;
77206;SDS011;66190;50.708;7.906;2023-04-15T14:48:35;9.27;;;3.90;;
77206;SDS011;66190;50.708;7.906;2023-04-15T14:51:00;10.47;;;4.23;;
77206;SDS011;66190;50.708;7.906;2023-04-15T14:53:26;8.23;;;3.58;;
77206;SDS011;66190;50.708;7.906;2023-04-15T14:55:51;9.23;;;4.03;;
77206;SDS011;66190;50.708;7.906;2023-04-15T14:58:17;7.93;;;3.37;;
77206;SDS011;66190;50.708;7.906;2023-04-15T15:00:42;14.10;;;5.37;;
77206;SDS011;66190;50.708;7.906;2023-04-15T15:03:09;14.95;;;8.18;;
77206;SDS011;66190;50.708;7.906;2023-04-15T15:05:39;10.98;;;6.55;;
77206;SDS011;66190;50.708;7.906;2023-04-15T15:08:09;8.82;;;3.90;;